Time;durP1;ratioP1;P1;durP2;ratioP2;P2;SDS_P1;SDS_P2;PMS_P1;PMS_P2;Temp;Humidity;BMP_temperature;BMP_pressure;BME280_temperature;BME280_humidity;BME280_pressure;Samples;Min_cycle;Max_cycle;Signal;HPM_P1;HPM_P2
2021/10/02 00:36:47;;;;;;;12.40;7.53;;;14.40;99.90;;;;;;4947476;28;20042;-77
2021/10/02 00:45:32;;;;;;;9.73;6.78;;;14.40;99.90;;;;;;4970098;28;20485;-79
2021/10/02 00:51:39;;;;;;;11.02;7.25;;;14.30;99.90;;;;;;4942128;28;20113;-78
2021/10/02 01:00:25;;;;;;;10.10;6.93;;;14.40;99.90;;;;;;4985541;28;20403;-78
2021/10/02 01:02:58;;;;;;;11.00;7.45;;;14.50;99.90;;;;;;4995953;28;20577;-80
2021/10/02 01:29:37;;;;;;;8.52;6.55;;;14.40;99.90;;;;;;5011514;23;20048;-77
2021/10/02 01:32:11;;;;;;;9.38;6.68;;;14.40;99.90;;;;;;5031719;28;20049;-78
2021/10/02 01:34:47;;;;;;;10.63;7.13;;;14.40;99.90;;;;;;5032276;28;20398;-78
2021/10/02 01:37:24;;;;;;;10.32;6.97;;;14.30;99.90;;;;;;5031947;28;20049;-78
2021/10/02 01:48:14;;;;;;;7.85;5.85;;;14.40;99.90;;;;;;5012838;28;20064;-77
2021/10/02 01:50:44;;;;;;;7.32;5.32;;;14.40;99.90;;;;;;5011680;28;20124;-78
2021/10/02 01:53:12;;;;;;;7.40;4.90;;;14.40;99.90;;;;;;5013253;28;20156;-78
2021/10/02 01:55:41;;;;;;;8.32;5.10;;;14.50;99.90;;;;;;5013265;28;20441;-77
2021/10/02 01:58:10;;;;;;;7.18;5.00;;;14.50;99.90;;;;;;5011865;28;20053;-78
2021/10/02 02:00:41;;;;;;;7.05;5.30;;;14.50;99.90;;;;;;5011788;28;20046;-77
2021/10/02 02:03:09;;;;;;;8.05;5.10;;;14.60;99.90;;;;;;5011884;28;20152;-78
2021/10/02 02:05:37;;;;;;;7.57;5.10;;;14.60;99.90;;;;;;5011658;28;20103;-78
2021/10/02 02:08:07;;;;;;;7.78;5.15;;;14.60;99.90;;;;;;5011473;28;20046;-78
2021/10/02 02:10:38;;;;;;;6.82;5.07;;;14.60;99.90;;;;;;5011475;28;20088;-78
2021/10/02 02:13:05;;;;;;;7.18;5.50;;;14.60;99.90;;;;;;5011896;28;20554;-78
2021/10/02 02:15:34;;;;;;;8.27;5.68;;;14.60;99.90;;;;;;5011562;28;20060;-77
2021/10/02 02:18:05;;;;;;;7.68;5.55;;;14.60;99.90;;;;;;5011439;28;20053;-77
2021/10/02 02:20:33;;;;;;;7.13;5.95;;;14.60;99.90;;;;;;5011165;28;20489;-78
2021/10/02 02:23:01;;;;;;;7.65;5.63;;;14.70;99.90;;;;;;5011610;28;20141;-77
2021/10/02 02:25:29;;;;;;;6.38;5.13;;;14.70;99.90;;;;;;5011571;28;20050;-77
2021/10/02 02:27:57;;;;;;;7.47;5.47;;;14.70;99.90;;;;;;5011448;28;20705;-77
2021/10/02 02:30:24;;;;;;;8.55;5.70;;;14.70;99.90;;;;;;5011475;28;20460;-77
2021/10/02 02:32:53;;;;;;;7.40;5.20;;;14.70;99.90;;;;;;5011376;28;20471;-77
2021/10/02 02:35:24;;;;;;;5.88;4.43;;;14.70;99.90;;;;;;5011288;28;20050;-77
2021/10/02 02:37:52;;;;;;;5.70;4.47;;;14.70;99.90;;;;;;5011453;28;20466;-76
2021/10/02 02:40:19;;;;;;;5.07;4.15;;;14.80;99.90;;;;;;5010195;28;20422;-76
2021/10/02 02:42:48;;;;;;;6.97;4.65;;;14.80;99.90;;;;;;5011128;28;20081;-76
2021/10/02 02:45:17;;;;;;;6.10;4.10;;;14.80;99.90;;;;;;5011152;28;20132;-76
2021/10/02 02:47:48;;;;;;;5.50;4.15;;;14.80;99.90;;;;;;5007930;28;20425;-76
2021/10/02 02:50:20;;;;;;;4.97;3.65;;;14.80;99.90;;;;;;5011353;28;20108;-76
2021/10/02 02:52:58;;;;;;;4.57;3.80;;;14.80;99.90;;;;;;5013649;28;20049;-77
2021/10/02 02:55:27;;;;;;;4.82;3.90;;;14.80;99.90;;;;;;5014170;28;20161;-77
2021/10/02 02:57:58;;;;;;;7.18;3.97;;;14.80;99.90;;;;;;5014239;28;20053;-76
2021/10/02 03:00:25;;;;;;;4.32;3.78;;;14.80;99.90;;;;;;5013717;28;20052;-76
2021/10/02 03:02:55;;;;;;;4.93;3.90;;;14.80;99.90;;;;;;5013449;28;20140;-77
2021/10/02 03:05:23;;;;;;;4.25;3.55;;;14.70;99.90;;;;;;5013343;28;20156;-77
2021/10/02 03:07:56;;;;;;;3.83;3.33;;;14.80;99.90;;;;;;5013801;28;20053;-76
2021/10/02 03:10:24;;;;;;;5.13;3.40;;;14.80;99.90;;;;;;5013891;28;20046;-77
2021/10/02 03:12:55;;;;;;;4.03;3.40;;;14.70;99.90;;;;;;5013114;28;20565;-76
2021/10/02 03:15:24;;;;;;;3.87;3.30;;;14.80;99.90;;;;;;5014429;28;20065;-77
2021/10/02 03:18:02;;;;;;;4.45;3.50;;;14.80;99.90;;;;;;5013485;28;20090;-77
2021/10/02 03:20:34;;;;;;;3.53;3.00;;;14.80;99.90;;;;;;5014699;28;20046;-77
2021/10/02 03:23:03;;;;;;;4.50;3.17;;;14.80;99.90;;;;;;5013991;28;20521;-78
2021/10/02 03:25:36;;;;;;;3.30;3.00;;;14.80;99.90;;;;;;5015223;28;20501;-78
2021/10/02 03:28:06;;;;;;;5.05;3.08;;;14.80;99.90;;;;;;5017157;28;20528;-78
2021/10/02 03:30:34;;;;;;;3.75;3.00;;;14.80;99.90;;;;;;5015830;28;20084;-79
2021/10/02 03:33:02;;;;;;;3.95;2.90;;;14.70;99.90;;;;;;5015002;28;20061;-81
2021/10/02 03:35:30;;;;;;;3.60;2.95;;;14.80;99.90;;;;;;5014604;28;20124;-79
2021/10/02 03:37:57;;;;;;;3.40;3.10;;;14.80;99.90;;;;;;5014066;28;20136;-78
2021/10/02 03:40:25;;;;;;;5.15;3.30;;;14.70;99.90;;;;;;5013742;28;20499;-77
2021/10/02 03:42:54;;;;;;;4.30;3.22;;;14.70;99.90;;;;;;5015452;28;20053;-78
2021/10/02 03:45:23;;;;;;;4.05;2.90;;;14.70;99.90;;;;;;5016001;28;20132;-79
2021/10/02 03:47:50;;;;;;;4.20;3.10;;;14.70;99.90;;;;;;5014607;28;20050;-79
2021/10/02 03:50:17;;;;;;;3.75;2.90;;;14.60;99.90;;;;;;5014371;28;20053;-79
2021/10/02 03:52:44;;;;;;;3.60;2.92;;;14.60;99.90;;;;;;5014260;28;20392;-78
2021/10/02 03:55:13;;;;;;;3.15;2.85;;;14.50;99.90;;;;;;5013848;28;20498;-78
2021/10/02 03:57:42;;;;;;;3.70;3.20;;;14.50;99.90;;;;;;5013709;28;20137;-78
2021/10/02 04:00:10;;;;;;;5.32;3.78;;;14.40;99.90;;;;;;5013434;28;20132;-78
2021/10/02 04:02:38;;;;;;;6.90;4.40;;;14.40;99.90;;;;;;5013547;28;20046;-78
2021/10/02 04:05:05;;;;;;;6.20;4.03;;;14.30;99.90;;;;;;5013961;28;20050;-78
2021/10/02 04:07:32;;;;;;;7.45;4.28;;;14.20;99.90;;;;;;5013577;28;20076;-78
2021/10/02 04:09:59;;;;;;;6.20;4.47;;;14.20;99.90;;;;;;5013327;28;20080;-78
2021/10/02 04:12:26;;;;;;;6.53;4.00;;;14.20;99.90;;;;;;5013394;28;20049;-78
2021/10/02 04:14:54;;;;;;;7.32;4.13;;;14.10;99.90;;;;;;5013640;28;20056;-78
2021/10/02 04:17:21;;;;;;;5.72;3.97;;;14.10;99.90;;;;;;5013166;28;20053;-78
2021/10/02 04:19:48;;;;;;;6.75;4.53;;;14.10;99.90;;;;;;5013090;28;20132;-79
2021/10/02 04:22:15;;;;;;;8.98;4.60;;;14.10;99.90;;;;;;5013300;28;20048;-78
2021/10/02 04:24:43;;;;;;;7.68;4.68;;;14.10;99.90;;;;;;5013201;28;20156;-78
2021/10/02 04:27:10;;;;;;;6.45;4.50;;;14.20;99.90;;;;;;5013164;28;20490;-78
2021/10/02 04:29:37;;;;;;;6.95;4.03;;;14.10;99.90;;;;;;5012953;28;20484;-78
2021/10/02 04:32:06;;;;;;;8.60;4.30;;;14.20;99.90;;;;;;5005485;28;20137;-77
2021/10/02 04:34:33;;;;;;;5.78;3.78;;;14.20;99.90;;;;;;5014625;28;20060;-78
2021/10/02 04:37:00;;;;;;;7.38;3.95;;;14.10;99.90;;;;;;5023365;28;20056;-78
2021/10/02 04:39:27;;;;;;;5.97;4.20;;;14.20;99.90;;;;;;5029204;28;20046;-78
2021/10/02 04:41:54;;;;;;;6.20;3.83;;;14.20;99.90;;;;;;5027257;28;20073;-78
2021/10/02 04:44:21;;;;;;;7.13;4.22;;;14.10;99.90;;;;;;5023125;28;20053;-79
2021/10/02 04:46:48;;;;;;;11.00;4.88;;;14.10;99.90;;;;;;5027524;28;20588;-77
2021/10/02 04:49:16;;;;;;;8.13;5.07;;;14.10;99.90;;;;;;5026413;28;20059;-76
2021/10/02 04:51:43;;;;;;;9.27;4.38;;;14.10;99.90;;;;;;5029992;28;20059;-78
2021/10/02 04:54:10;;;;;;;6.45;3.72;;;14.20;99.90;;;;;;5022474;28;20050;-79
2021/10/02 04:56:38;;;;;;;6.35;3.97;;;14.10;99.90;;;;;;5029855;28;20060;-78
2021/10/02 04:59:05;;;;;;;7.32;4.32;;;14.10;99.90;;;;;;5022592;28;20056;-78
2021/10/02 05:01:32;;;;;;;5.30;4.13;;;14.20;99.90;;;;;;5029192;28;20045;-78
2021/10/02 05:04:01;;;;;;;6.85;4.80;;;14.20;99.90;;;;;;5025570;28;20060;-78
2021/10/02 05:06:30;;;;;;;8.82;4.30;;;14.20;99.90;;;;;;5028330;28;20144;-78
2021/10/02 05:08:58;;;;;;;8.57;4.80;;;14.30;99.90;;;;;;5026138;28;20141;-77
2021/10/02 05:11:24;;;;;;;8.60;4.65;;;14.20;99.90;;;;;;5029698;28;20046;-78
2021/10/02 05:13:51;;;;;;;6.07;3.85;;;14.20;99.90;;;;;;5031038;28;20053;-78
2021/10/02 05:16:18;;;;;;;5.55;3.58;;;14.20;99.90;;;;;;5032741;28;20056;-80
2021/10/02 05:18:45;;;;;;;5.82;4.03;;;14.20;99.90;;;;;;5034032;28;20087;-80
2021/10/02 05:21:12;;;;;;;5.18;3.70;;;14.20;99.90;;;;;;5033438;28;20080;-79
2021/10/02 05:23:40;;;;;;;5.32;3.55;;;14.20;99.90;;;;;;5032901;28;20128;-78
2021/10/02 05:26:09;;;;;;;4.47;3.88;;;14.20;99.90;;;;;;5031675;28;20057;-78
2021/10/02 05:28:36;;;;;;;4.18;3.53;;;14.10;99.90;;;;;;5031854;28;20061;-77
2021/10/02 05:31:03;;;;;;;5.75;4.18;;;14.10;99.90;;;;;;5032302;28;20570;-76
2021/10/02 05:33:29;;;;;;;5.93;4.20;;;14.10;99.90;;;;;;5032983;28;20092;-76
2021/10/02 05:35:56;;;;;;;5.35;3.83;;;14.10;99.90;;;;;;5032989;28;20053;-79
2021/10/02 05:38:23;;;;;;;4.75;3.72;;;14.00;99.90;;;;;;5032065;28;20076;-79
2021/10/02 05:40:52;;;;;;;9.80;4.57;;;14.00;99.90;;;;;;5031403;28;20132;-77
2021/10/02 05:43:19;;;;;;;4.60;3.85;;;14.00;99.90;;;;;;5031874;28;20049;-76
2021/10/02 05:45:46;;;;;;;4.90;4.28;;;14.00;99.90;;;;;;5031807;28;20406;-77
2021/10/02 05:48:13;;;;;;;6.18;4.10;;;13.90;99.90;;;;;;5031854;28;20065;-77
2021/10/02 05:50:39;;;;;;;6.95;4.75;;;13.90;99.90;;;;;;5031982;28;20061;-77
2021/10/02 05:53:07;;;;;;;8.80;4.80;;;13.90;99.90;;;;;;5032874;28;20573;-77
2021/10/02 05:55:35;;;;;;;7.55;4.47;;;13.90;99.90;;;;;;5029248;28;20053;-78
2021/10/02 05:58:03;;;;;;;7.72;5.13;;;13.80;99.90;;;;;;5031035;28;20140;-78
2021/10/02 06:00:30;;;;;;;8.02;4.80;;;13.80;99.90;;;;;;5031165;28;20417;-78
2021/10/02 06:02:57;;;;;;;5.70;4.53;;;13.80;99.90;;;;;;5031205;28;20528;-78
2021/10/02 06:05:26;;;;;;;6.13;4.63;;;13.80;99.90;;;;;;5030832;28;20053;-79
2021/10/02 06:07:54;;;;;;;7.95;4.53;;;13.80;99.90;;;;;;5032591;28;20049;-78
2021/10/02 06:10:21;;;;;;;6.15;4.38;;;13.80;99.90;;;;;;5031190;28;20049;-79
2021/10/02 06:12:50;;;;;;;8.10;4.63;;;13.90;99.90;;;;;;5031880;28;20116;-77
2021/10/02 06:15:18;;;;;;;7.38;4.72;;;14.00;99.90;;;;;;5032002;28;20049;-78
2021/10/02 06:17:45;;;;;;;8.07;4.90;;;14.00;99.90;;;;;;5032416;28;20133;-78
2021/10/02 06:20:12;;;;;;;9.07;4.40;;;14.10;99.90;;;;;;5032362;28;20049;-78
2021/10/02 06:22:39;;;;;;;6.07;4.25;;;14.20;99.90;;;;;;5033013;28;20057;-78
2021/10/02 06:25:07;;;;;;;6.47;4.63;;;14.20;99.90;;;;;;5035487;28;20454;-77
2021/10/02 06:27:33;;;;;;;6.82;4.90;;;14.30;99.90;;;;;;5036105;28;20134;-78
2021/10/02 06:30:01;;;;;;;5.95;5.07;;;14.30;99.90;;;;;;5035395;28;20049;-77
2021/10/02 06:32:29;;;;;;;6.25;5.57;;;14.30;99.90;;;;;;5031832;28;20077;-78
2021/10/02 06:34:56;;;;;;;8.30;5.38;;;14.30;99.90;;;;;;5028462;28;20041;-78
2021/10/02 06:37:22;;;;;;;7.75;5.70;;;14.30;99.90;;;;;;5025326;28;20064;-77
2021/10/02 06:39:49;;;;;;;8.85;5.93;;;14.30;99.90;;;;;;5023560;28;20077;-76
2021/10/02 06:42:16;;;;;;;6.80;5.90;;;14.30;99.90;;;;;;5014325;28;20054;-78
2021/10/02 06:44:43;;;;;;;8.90;5.97;;;14.30;99.90;;;;;;5014561;28;20064;-77
2021/10/02 06:47:10;;;;;;;6.75;6.05;;;14.30;99.90;;;;;;5013840;28;20124;-77
2021/10/02 06:49:40;;;;;;;6.75;5.63;;;14.20;99.90;;;;;;5013848;28;20060;-77
2021/10/02 06:52:07;;;;;;;6.05;5.43;;;14.20;99.90;;;;;;5015405;28;20050;-77
2021/10/02 06:54:34;;;;;;;6.07;5.13;;;14.20;99.90;;;;;;5014909;28;20056;-77
2021/10/02 06:57:00;;;;;;;8.65;5.63;;;14.30;99.90;;;;;;5014950;28;20054;-77
2021/10/02 06:59:27;;;;;;;7.18;4.82;;;14.50;99.90;;;;;;5014049;28;20050;-78
2021/10/02 07:01:55;;;;;;;7.03;5.00;;;14.70;99.90;;;;;;5014518;28;20092;-78
2021/10/02 07:04:22;;;;;;;8.50;5.60;;;14.80;99.90;;;;;;5014573;28;20061;-77
2021/10/02 07:06:50;;;;;;;6.97;5.03;;;14.90;99.90;;;;;;5015538;28;20060;-78
2021/10/02 07:09:17;;;;;;;5.32;4.72;;;14.90;99.90;;;;;;5016808;28;20097;-78
2021/10/02 07:11:43;;;;;;;7.13;4.93;;;14.90;99.90;;;;;;5019809;28;20129;-78
2021/10/02 07:14:10;;;;;;;5.70;5.00;;;14.90;99.90;;;;;;5020042;28;20049;-79
2021/10/02 07:16:37;;;;;;;9.90;5.10;;;14.90;99.90;;;;;;5019938;28;20473;-79
2021/10/02 07:19:04;;;;;;;5.85;5.25;;;14.90;99.90;;;;;;5019966;28;20057;-78
2021/10/02 07:21:31;;;;;;;5.90;4.63;;;15.00;99.90;;;;;;5018580;28;20057;-78
2021/10/02 07:24:00;;;;;;;6.85;4.75;;;15.00;99.90;;;;;;5021757;28;20154;-79
2021/10/02 07:26:26;;;;;;;6.88;4.82;;;15.00;99.90;;;;;;5018709;28;20096;-79
2021/10/02 07:31:24;;;;;;;6.03;4.07;;;15.10;99.90;;;;;;5040773;28;20057;-82
2021/10/02 07:33:56;;;;;;;6.20;4.45;;;15.10;99.90;;;;;;5042798;28;20056;-82
2021/10/02 07:36:25;;;;;;;10.73;4.13;;;15.20;99.90;;;;;;5042221;28;20073;-84
2021/10/02 07:38:52;;;;;;;7.53;4.45;;;15.30;99.90;;;;;;5044471;28;20057;-84
2021/10/02 07:41:20;;;;;;;5.43;4.00;;;15.30;99.90;;;;;;5042761;28;20056;-84
2021/10/02 07:43:52;;;;;;;6.85;4.97;;;15.40;99.90;;;;;;5043786;28;20724;-84
2021/10/02 07:46:21;;;;;;;7.85;5.22;;;15.50;99.90;;;;;;5044563;28;20099;-84
2021/10/02 07:48:52;;;;;;;8.18;4.82;;;15.60;99.90;;;;;;5044724;28;20108;-85
2021/10/02 07:51:23;;;;;;;6.40;4.43;;;15.70;99.90;;;;;;5058623;28;20132;-84
2021/10/02 07:53:51;;;;;;;5.43;4.55;;;15.80;99.90;;;;;;5059027;28;20041;-85
2021/10/02 07:56:28;;;;;;;8.02;4.95;;;15.80;99.90;;;;;;5056269;28;20045;-84
2021/10/02 07:58:55;;;;;;;6.78;4.35;;;15.80;99.90;;;;;;5047711;28;20054;-84
2021/10/02 08:01:22;;;;;;;6.53;4.47;;;15.80;99.90;;;;;;5044016;28;20050;-84
2021/10/02 08:03:52;;;;;;;6.78;4.47;;;15.90;99.90;;;;;;5042296;28;20107;-82
2021/10/02 08:06:22;;;;;;;5.95;4.22;;;15.90;99.90;;;;;;5040261;28;20136;-80
2021/10/02 08:08:51;;;;;;;5.22;4.00;;;16.00;99.90;;;;;;5040324;28;20144;-80
2021/10/02 08:14:00;;;;;;;5.28;3.70;;;16.30;99.90;;;;;;5037265;28;20057;-80
2021/10/02 08:16:30;;;;;;;7.03;3.90;;;16.60;99.90;;;;;;5038879;28;20132;-80
2021/10/02 08:18:59;;;;;;;5.05;3.90;;;16.70;99.90;;;;;;5037018;28;20616;-80
2021/10/02 08:21:28;;;;;;;5.22;3.88;;;16.70;99.90;;;;;;5037114;28;20071;-81
2021/10/02 08:23:55;;;;;;;5.55;3.88;;;16.70;99.90;;;;;;5036253;28;20099;-78
2021/10/02 08:26:27;;;;;;;6.13;4.53;;;16.50;99.90;;;;;;5035562;28;20084;-79
2021/10/02 08:28:54;;;;;;;4.43;3.70;;;16.40;99.90;;;;;;5028018;28;20053;-79
2021/10/02 08:31:22;;;;;;;6.65;4.28;;;16.40;99.90;;;;;;5017280;28;20406;-80
2021/10/02 08:33:50;;;;;;;6.32;4.25;;;16.40;99.90;;;;;;5015806;28;20144;-77
2021/10/02 08:36:17;;;;;;;5.97;4.20;;;16.30;99.90;;;;;;5016503;28;20136;-79
2021/10/02 08:38:44;;;;;;;5.25;3.97;;;16.40;99.90;;;;;;5015651;28;20088;-78
2021/10/02 08:41:12;;;;;;;5.75;3.90;;;16.50;99.90;;;;;;5016094;28;20050;-82
2021/10/02 08:43:40;;;;;;;5.43;4.10;;;16.60;99.90;;;;;;5016309;28;20078;-80
2021/10/02 08:46:08;;;;;;;5.00;4.22;;;16.70;99.90;;;;;;5016567;28;20165;-80
2021/10/02 08:48:35;;;;;;;6.18;4.05;;;16.70;99.90;;;;;;5016034;28;20050;-79
2021/10/02 08:51:04;;;;;;;5.13;3.72;;;16.90;99.90;;;;;;5016427;28;20132;-77
2021/10/02 08:53:33;;;;;;;4.00;3.50;;;17.10;99.90;;;;;;5017117;28;20045;-78
2021/10/02 08:56:00;;;;;;;5.95;4.00;;;17.10;99.90;;;;;;5016769;28;20061;-81
2021/10/02 08:58:28;;;;;;;5.55;4.10;;;17.10;99.90;;;;;;5016131;28;20092;-79
2021/10/02 09:00:57;;;;;;;5.03;3.90;;;17.10;99.90;;;;;;5016098;28;20052;-81
2021/10/02 09:03:24;;;;;;;9.35;4.55;;;17.10;99.90;;;;;;5018825;28;20111;-79
2021/10/02 09:05:51;;;;;;;6.55;3.80;;;17.00;99.90;;;;;;5026043;28;20079;-78
2021/10/02 09:08:18;;;;;;;6.47;3.92;;;16.90;99.90;;;;;;5024868;28;20073;-80
2021/10/02 09:10:45;;;;;;;4.90;4.13;;;16.90;99.90;;;;;;5023388;28;20045;-80
2021/10/02 09:13:12;;;;;;;4.68;4.00;;;16.90;99.90;;;;;;5033903;28;20157;-81
2021/10/02 09:15:39;;;;;;;5.95;4.35;;;16.90;99.90;;;;;;5035241;28;20454;-77
2021/10/02 09:18:09;;;;;;;6.38;4.65;;;16.90;99.90;;;;;;5032731;28;20117;-77
2021/10/02 09:20:36;;;;;;;9.18;4.20;;;16.70;99.90;;;;;;5034417;28;20053;-82
2021/10/02 09:23:08;;;;;;;5.10;4.20;;;16.80;99.90;;;;;;5037863;28;20128;-80
2021/10/02 09:25:35;;;;;;;;;;;16.90;99.90;;;;;;5037640;28;20077;-79
2021/10/02 09:28:06;;;;;;;6.47;4.25;;;17.20;99.90;;;;;;5033074;28;19925;-79
2021/10/02 09:30:33;;;;;;;7.47;4.82;;;17.40;99.90;;;;;;5014157;28;20133;-78
2021/10/02 09:33:06;;;;;;;5.03;4.28;;;17.40;99.90;;;;;;5016338;28;20128;-78
2021/10/02 09:35:38;;;;;;;6.05;4.07;;;17.40;99.90;;;;;;5015129;28;20054;-80
2021/10/02 09:38:08;;;;;;;5.90;4.55;;;17.40;99.90;;;;;;5014128;28;20053;-79
2021/10/02 09:40:35;;;;;;;5.45;4.47;;;17.40;99.90;;;;;;5016929;28;20144;-80
2021/10/02 09:43:06;;;;;;;6.03;4.65;;;17.30;99.90;;;;;;5023309;28;20129;-80
2021/10/02 09:45:36;;;;;;;5.90;4.32;;;17.30;99.90;;;;;;5037177;28;20049;-79
2021/10/02 09:48:05;;;;;;;6.93;4.65;;;17.30;99.90;;;;;;5033002;28;20053;-77
2021/10/02 09:50:34;;;;;;;8.73;4.78;;;17.40;99.90;;;;;;5034650;28;20528;-78
2021/10/02 09:53:05;;;;;;;8.05;5.43;;;17.40;99.90;;;;;;5033372;28;20049;-79
2021/10/02 09:55:34;;;;;;;5.35;4.50;;;17.50;99.90;;;;;;5033104;28;20139;-77
2021/10/02 09:58:05;;;;;;;7.05;4.50;;;17.50;99.90;;;;;;5033540;28;20073;-79
2021/10/02 10:00:33;;;;;;;4.95;4.00;;;17.60;99.90;;;;;;5032529;28;20057;-79
2021/10/02 10:03:03;;;;;;;7.57;4.57;;;17.50;99.90;;;;;;5033508;28;20115;-79
2021/10/02 10:05:34;;;;;;;8.18;4.63;;;17.60;99.90;;;;;;5033100;28;20053;-79
2021/10/02 10:08:05;;;;;;;5.60;4.22;;;17.60;99.90;;;;;;5038531;28;20053;-80
2021/10/02 10:10:34;;;;;;;8.10;3.63;;;17.70;99.90;;;;;;5037494;28;20045;-79
2021/10/02 10:13:05;;;;;;;4.13;3.08;;;17.70;99.90;;;;;;5034919;28;20502;-80
2021/10/02 10:15:37;;;;;;;6.68;3.40;;;17.90;99.90;;;;;;5034393;28;20049;-79
2021/10/02 10:18:04;;;;;;;5.63;3.80;;;18.00;99.90;;;;;;5034474;28;20144;-78
2021/10/02 10:20:38;;;;;;;6.25;3.85;;;18.20;99.90;;;;;;5033960;28;20488;-79
2021/10/02 10:23:08;;;;;;;5.65;3.80;;;18.30;99.90;;;;;;5036538;28;20502;-80
2021/10/02 10:25:47;;;;;;;4.93;3.72;;;18.30;99.90;;;;;;5036449;28;20092;-80
2021/10/02 10:28:18;;;;;;;4.75;3.50;;;18.50;99.90;;;;;;5032653;28;20053;-79
2021/10/02 10:30:47;;;;;;;4.18;3.15;;;18.80;99.90;;;;;;5015876;28;20077;-80
2021/10/02 10:33:15;;;;;;;6.95;3.22;;;19.00;99.90;;;;;;5024119;28;20049;-79
2021/10/02 10:35:45;;;;;;;5.70;3.30;;;19.10;99.90;;;;;;5024756;28;20042;-80
2021/10/02 10:38:15;;;;;;;4.25;3.08;;;19.20;99.90;;;;;;5024364;28;20137;-78
2021/10/02 10:40:43;;;;;;;3.83;2.92;;;19.10;99.90;;;;;;5024265;28;20128;-81
2021/10/02 10:43:10;;;;;;;4.15;2.65;;;19.20;99.90;;;;;;5022856;28;20084;-79
2021/10/02 10:45:38;;;;;;;4.43;2.67;;;19.40;99.90;;;;;;5025242;28;20302;-80
2021/10/02 10:48:06;;;;;;;5.43;3.00;;;19.40;99.90;;;;;;5026205;28;20050;-82
2021/10/02 10:50:34;;;;;;;2.55;2.35;;;19.60;99.90;;;;;;5033129;28;20060;-80
2021/10/02 10:53:02;;;;;;;3.70;2.33;;;19.70;99.90;;;;;;5036059;28;20079;-80
2021/10/02 10:55:31;;;;;;;2.60;2.08;;;19.80;99.90;;;;;;5033437;28;20087;-79
2021/10/02 10:58:00;;;;;;;2.05;1.90;;;19.80;99.90;;;;;;5033708;28;20057;-80
2021/10/02 11:00:42;;;;;;;2.70;2.20;;;19.90;99.90;;;;;;5033989;28;20088;-81
2021/10/02 11:03:10;;;;;;;1.98;1.88;;;20.00;99.90;;;;;;5034953;28;20049;-81
2021/10/02 11:06:01;;;;;;;2.67;2.00;;;19.90;99.90;;;;;;5033778;28;20117;-80
2021/10/02 11:09:03;;;;;;;2.00;1.80;;;19.80;99.90;;;;;;5011219;28;20080;-80
2021/10/02 11:12:00;;;;;;;2.15;1.73;;;19.60;99.90;;;;;;5014100;28;20145;-81
2021/10/02 11:15:00;;;;;;;2.08;1.58;;;19.30;99.90;;;;;;5020158;28;20046;-80
2021/10/02 11:17:46;;;;;;;1.85;1.48;;;19.40;99.90;;;;;;5020195;28;20056;-80
2021/10/02 11:20:37;;;;;;;2.95;1.50;;;19.40;99.90;;;;;;5019822;28;20109;-79
2021/10/02 11:24:01;;;;;;;3.20;2.22;;;19.40;99.90;;;;;;5022620;28;20126;-79
2021/10/02 11:26:37;;;;;;;1.67;1.48;;;19.40;99.90;;;;;;5034583;28;20155;-81
2021/10/02 11:29:27;;;;;;;3.03;1.65;;;19.40;99.90;;;;;;5025858;28;20437;-80
2021/10/02 11:32:27;;;;;;;2.63;1.60;;;19.30;99.90;;;;;;5027377;28;20562;-80
2021/10/02 11:35:30;;;;;;;1.92;1.23;;;19.20;99.90;;;;;;5028126;28;20054;-80
2021/10/02 11:38:03;;;;;;;3.55;1.98;;;19.20;99.90;;;;;;4984444;28;20070;-79
2021/10/02 11:40:51;;;;;;;;;;;19.30;99.90;;;;;;5019581;28;20045;-80
2021/10/02 11:43:31;;;;;;;3.83;2.17;;;19.40;99.90;;;;;;5020359;28;20531;-80
2021/10/02 11:46:17;;;;;;;2.10;1.70;;;19.30;99.90;;;;;;5020325;28;20046;-80
2021/10/02 11:48:47;;;;;;;3.03;2.15;;;19.40;99.90;;;;;;5017545;28;20057;-80
2021/10/02 11:51:34;;;;;;;4.75;2.40;;;19.40;99.90;;;;;;5017700;28;20050;-79
2021/10/02 11:54:16;;;;;;;4.82;2.30;;;19.50;99.90;;;;;;5019032;28;20133;-78
2021/10/02 11:56:44;;;;;;;6.03;2.03;;;19.50;99.90;;;;;;5017680;28;20148;-80
2021/10/02 11:59:12;;;;;;;2.50;2.00;;;19.50;99.90;;;;;;5017752;28;20153;-80
2021/10/02 12:01:42;;;;;;;2.20;2.00;;;19.50;99.90;;;;;;5018176;28;20072;-80
2021/10/02 12:04:12;;;;;;;2.33;2.10;;;19.50;99.90;;;;;;5018317;28;20077;-82
2021/10/02 12:06:40;;;;;;;2.88;2.05;;;19.60;99.90;;;;;;5017512;28;20077;-79
2021/10/02 12:09:11;;;;;;;3.45;2.30;;;19.60;99.90;;;;;;5017106;28;20085;-79
2021/10/02 12:11:46;;;;;;;2.50;2.30;;;19.70;99.90;;;;;;5018384;28;20085;-79
2021/10/02 12:14:15;;;;;;;4.07;1.90;;;19.70;99.90;;;;;;5017248;28;20137;-80
2021/10/02 12:16:45;;;;;;;3.30;2.55;;;19.70;99.90;;;;;;5016917;28;20132;-81
2021/10/02 12:19:20;;;;;;;2.88;2.38;;;19.60;99.90;;;;;;5015573;28;20104;-78
2021/10/02 12:21:49;;;;;;;4.68;2.05;;;19.70;99.90;;;;;;5016892;28;20108;-80
2021/10/02 12:24:19;;;;;;;2.80;2.42;;;19.80;99.90;;;;;;5017774;28;20133;-79
2021/10/02 12:26:49;;;;;;;2.53;2.28;;;19.80;99.90;;;;;;5017477;28;20050;-80
2021/10/02 12:29:20;;;;;;;3.13;2.15;;;19.80;99.90;;;;;;5020157;28;20050;-78
2021/10/02 12:32:00;;;;;;;4.25;2.45;;;19.70;99.90;;;;;;5024996;28;20041;-78
2021/10/02 12:34:30;;;;;;;4.80;2.20;;;19.80;99.90;;;;;;5024980;28;20592;-79
2021/10/02 12:36:59;;;;;;;2.63;2.10;;;19.80;99.90;;;;;;5027096;28;20072;-81
2021/10/02 12:39:30;;;;;;;13.10;3.15;;;19.70;99.90;;;;;;5021448;28;20110;-81
2021/10/02 12:41:57;;;;;;;2.88;2.58;;;19.70;99.90;;;;;;5017785;28;20050;-81
2021/10/02 12:44:27;;;;;;;3.17;2.45;;;19.60;99.90;;;;;;5017084;28;20046;-80
2021/10/02 12:46:55;;;;;;;4.30;2.58;;;19.60;99.90;;;;;;5017193;28;20133;-80
2021/10/02 12:49:25;;;;;;;3.63;2.55;;;19.60;99.90;;;;;;5016922;28;20447;-81
2021/10/02 12:51:53;;;;;;;4.60;2.65;;;19.60;99.90;;;;;;5017319;28;20050;-80
2021/10/02 12:54:24;;;;;;;2.92;2.63;;;19.50;99.90;;;;;;5019208;28;20100;-79
2021/10/02 12:57:11;;;;;;;3.40;2.80;;;19.50;99.90;;;;;;5027859;28;20085;-79
2021/10/02 12:59:44;;;;;;;3.67;2.55;;;19.30;99.90;;;;;;5028800;28;20046;-79
2021/10/02 13:02:13;;;;;;;3.75;2.70;;;19.30;99.90;;;;;;5028837;28;20063;-79
2021/10/02 13:04:41;;;;;;;3.03;2.45;;;19.20;99.90;;;;;;5029292;28;20041;-79
2021/10/02 13:07:08;;;;;;;6.25;2.72;;;19.30;99.90;;;;;;5031225;28;20081;-79
2021/10/02 13:09:55;;;;;;;4.30;2.88;;;19.40;99.90;;;;;;5019113;28;20138;-80
2021/10/02 13:12:27;;;;;;;3.58;2.72;;;19.40;99.90;;;;;;5029785;28;20080;-82
2021/10/02 13:14:56;;;;;;;3.58;2.60;;;19.50;99.90;;;;;;5030993;28;20050;-80
2021/10/02 13:17:24;;;;;;;4.78;3.10;;;19.60;99.90;;;;;;5027559;28;20080;-81
2021/10/02 13:20:11;;;;;;;4.28;2.88;;;19.60;99.90;;;;;;5035122;28;20100;-80
2021/10/02 13:22:43;;;;;;;5.28;2.90;;;19.70;99.90;;;;;;5039398;28;20077;-80
2021/10/02 13:25:14;;;;;;;2.78;2.53;;;19.60;99.90;;;;;;5037809;28;20129;-80
2021/10/02 13:27:44;;;;;;;2.88;2.55;;;19.50;99.90;;;;;;5037872;28;20132;-79
2021/10/02 13:30:16;;;;;;;4.47;2.80;;;19.40;99.90;;;;;;5046113;23;20541;-80
2021/10/02 13:32:58;;;;;;;3.58;2.92;;;19.40;99.90;;;;;;5025518;28;20041;-80
2021/10/02 13:35:29;;;;;;;7.00;2.97;;;19.40;99.90;;;;;;5017176;28;20077;-80
2021/10/02 13:37:58;;;;;;;3.70;2.58;;;19.50;99.90;;;;;;5015907;28;20510;-80
2021/10/02 13:40:27;;;;;;;6.65;2.65;;;19.60;99.90;;;;;;5016939;28;20302;-80
2021/10/02 13:42:55;;;;;;;4.00;2.85;;;19.60;99.90;;;;;;5018096;28;20065;-80
2021/10/02 13:45:27;;;;;;;4.28;3.45;;;19.60;99.90;;;;;;5017840;28;20050;-81
2021/10/02 13:47:56;;;;;;;2.90;2.60;;;19.50;99.90;;;;;;5017108;28;20090;-80
2021/10/02 13:50:23;;;;;;;5.90;2.90;;;19.40;99.90;;;;;;5015379;28;20060;-80
2021/10/02 13:52:52;;;;;;;3.90;3.13;;;19.40;99.90;;;;;;5017909;28;20054;-80
2021/10/02 13:55:20;;;;;;;6.47;2.85;;;19.40;99.90;;;;;;5017993;28;20050;-79
2021/10/02 13:57:46;;;;;;;6.22;2.90;;;19.50;99.90;;;;;;5017670;28;20054;-79
2021/10/02 14:00:14;;;;;;;3.70;2.78;;;19.50;99.90;;;;;;5016243;28;20475;-78
2021/10/02 14:02:41;;;;;;;6.18;2.75;;;19.50;99.90;;;;;;5016311;28;20509;-78
2021/10/02 14:05:09;;;;;;;4.10;2.88;;;19.30;99.90;;;;;;5016724;28;20072;-80
2021/10/02 14:07:36;;;;;;;5.82;2.70;;;19.20;99.90;;;;;;5018061;28;20056;-79
2021/10/02 14:10:05;;;;;;;3.05;2.45;;;19.20;99.90;;;;;;5016165;28;20052;-78
2021/10/02 14:12:32;;;;;;;4.55;3.20;;;19.20;99.90;;;;;;5014973;28;20136;-79
2021/10/02 14:14:59;;;;;;;6.53;2.63;;;19.20;99.90;;;;;;5035140;28;20051;-79
2021/10/02 14:17:25;;;;;;;3.47;2.55;;;19.20;99.90;;;;;;5036953;28;20680;-79
2021/10/02 14:19:52;;;;;;;3.65;3.00;;;19.20;99.90;;;;;;5037283;28;20348;-78
2021/10/02 14:22:19;;;;;;;6.30;3.10;;;19.20;99.90;;;;;;5035070;28;20486;-79
2021/10/02 14:24:46;;;;;;;4.28;3.10;;;19.20;99.90;;;;;;5035643;28;20521;-79
2021/10/02 14:27:14;;;;;;;4.50;2.78;;;19.20;99.90;;;;;;5036823;28;20473;-79
2021/10/02 14:29:41;;;;;;;6.43;4.38;;;19.20;99.90;;;;;;5020444;28;20483;-79
2021/10/02 14:32:10;;;;;;;4.18;2.72;;;19.10;99.90;;;;;;5017137;28;20058;-79